Time;durP1;ratioP1;P1;durP2;ratioP2;P2;SDS_P1;SDS_P2;PMS_P1;PMS_P2;Temp;Humidity;BMP_temperature;BMP_pressure;BME280_temperature;BME280_humidity;BME280_pressure;Samples;Min_cycle;Max_cycle;Signal;HPM_P1;HPM_P2
2023/05/11 00:01:22;;;;;;;11.00;6.00;;;;;;;12.18;50.09;100360.39;129436;1263;114783;-70
2023/05/11 00:04:24;;;;;;;9.70;6.10;;;;;;;12.11;50.58;100360.77;129617;1274;114731;-69
2023/05/11 00:07:27;;;;;;;8.00;6.00;;;;;;;12.05;50.61;100363.79;129497;1260;116532;-69
2023/05/11 00:10:29;;;;;;;10.90;6.40;;;;;;;11.97;51.21;100359.89;129518;1262;115241;-68
2023/05/11 00:13:31;;;;;;;10.40;5.50;;;;;;;11.91;50.78;100358.24;129620;1259;114737;-68
2023/05/11 00:16:33;;;;;;;7.80;5.50;;;;;;;11.87;51.23;100361.34;129700;1280;114750;-68
2023/05/11 00:19:37;;;;;;;15.50;6.20;;;;;;;11.82;51.74;100363.38;129530;1264;115097;-68
2023/05/11 00:22:39;;;;;;;9.40;6.20;;;;;;;11.77;51.79;100363.15;129484;1257;115318;-69
2023/05/11 00:25:41;;;;;;;8.50;5.70;;;;;;;11.72;51.71;100364.30;129750;1257;115180;-68
2023/05/11 00:28:44;;;;;;;11.30;5.80;;;;;;;11.66;52.00;100357.80;129741;1264;115187;-69
2023/05/11 00:31:47;;;;;;;12.40;6.90;;;;;;;11.62;52.24;100359.67;129533;1263;114725;-68
2023/05/11 00:34:49;;;;;;;8.60;5.80;;;;;;;11.59;52.36;100359.11;129521;1274;115169;-67
2023/05/11 00:37:51;;;;;;;12.50;6.80;;;;;;;11.54;52.28;100361.27;129535;1281;114853;-69
2023/05/11 00:40:54;;;;;;;11.90;6.40;;;;;;;11.50;52.58;100362.77;129586;1281;114797;-70
2023/05/11 00:43:56;;;;;;;11.70;7.00;;;;;;;11.45;52.38;100360.89;129271;1282;128489;-69
2023/05/11 00:46:59;;;;;;;12.00;6.20;;;;;;;11.40;52.78;100360.41;129486;1263;114758;-69
2023/05/11 00:50:01;;;;;;;13.30;6.00;;;;;;;11.36;52.84;100362.06;129443;1281;114742;-71
2023/05/11 00:53:04;;;;;;;12.40;6.70;;;;;;;11.31;52.78;100363.76;129567;1264;115143;-69
2023/05/11 00:56:07;;;;;;;7.20;5.90;;;;;;;11.26;52.64;100366.50;129455;1266;114774;-68
2023/05/11 00:59:09;;;;;;;10.00;6.30;;;;;;;11.23;52.79;100366.65;129742;1282;114775;-64
2023/05/11 01:02:14;;;;;;;9.30;6.60;;;;;;;11.19;52.85;100362.75;129298;1281;128928;-65
2023/05/11 01:05:17;;;;;;;10.10;6.70;;;;;;;11.15;52.95;100362.26;129614;1277;114769;-70
2023/05/11 01:08:33;;;;;;;9.90;6.70;;;;;;;11.09;53.28;100363.94;129703;1281;114730;-65
2023/05/11 01:11:41;;;;;;;11.10;7.40;;;;;;;11.04;53.46;100363.83;129214;1257;352235;-65
2023/05/11 01:15:08;;;;;;;8.80;5.70;;;;;;;11.02;53.65;100364.52;129458;1263;114806;-61
2023/05/11 01:18:13;;;;;;;8.60;6.30;;;;;;;10.98;53.68;100361.48;129492;1262;128679;-65
2023/05/11 01:21:17;;;;;;;10.10;6.10;;;;;;;10.96;53.88;100359.44;129395;1265;115187;-66
2023/05/11 01:24:22;;;;;;;11.30;6.50;;;;;;;10.94;53.77;100359.33;129627;1257;114795;-65
2023/05/11 01:28:10;;;;;;;9.50;5.80;;;;;;;10.91;53.95;100358.92;129444;1261;114892;-62
2023/05/11 01:31:14;;;;;;;10.90;6.60;;;;;;;10.89;54.15;100362.63;129187;1269;114951;-63
2023/05/11 01:34:21;;;;;;;12.90;7.00;;;;;;;10.86;54.18;100358.30;128972;1287;127831;-62
2023/05/11 01:37:25;;;;;;;10.80;6.10;;;;;;;10.84;54.39;100361.96;129011;1287;116365;-67
2023/05/11 01:40:31;;;;;;;10.50;6.30;;;;;;;10.83;54.28;100364.71;129023;1279;114944;-64
2023/05/11 01:43:35;;;;;;;13.50;7.00;;;;;;;10.82;54.20;100364.98;129017;1268;114790;-62
2023/05/11 01:46:38;;;;;;;9.70;6.30;;;;;;;10.82;54.22;100365.69;128671;1273;114955;-62
2023/05/11 01:49:43;;;;;;;12.50;7.00;;;;;;;10.82;54.33;100364.96;128874;1270;114835;-67
2023/05/11 01:52:46;;;;;;;14.30;7.40;;;;;;;10.81;54.50;100364.64;129042;1287;114979;-65
2023/05/11 01:55:49;;;;;;;12.10;6.60;;;;;;;10.81;54.40;100371.08;129063;1287;115140;-65
2023/05/11 01:58:53;;;;;;;12.60;6.60;;;;;;;10.80;54.57;100370.77;129021;1281;114913;-62
2023/05/11 02:01:56;;;;;;;8.00;6.30;;;;;;;10.79;54.55;100372.61;129066;1287;114909;-62
2023/05/11 02:05:00;;;;;;;13.00;5.90;;;;;;;10.78;54.56;100369.42;129017;1274;114911;-67
2023/05/11 02:08:04;;;;;;;14.00;7.10;;;;;;;10.78;54.69;100374.45;129044;1257;115250;-67
2023/05/11 02:11:09;;;;;;;13.20;7.10;;;;;;;10.78;54.53;100378.14;129473;1263;114774;-67
2023/05/11 02:14:11;;;;;;;11.70;7.10;;;;;;;10.78;54.64;100377.27;129437;1263;114766;-66
2023/05/11 02:17:15;;;;;;;10.70;6.50;;;;;;;10.78;54.81;100382.28;129430;1280;114874;-64
2023/05/11 02:20:19;;;;;;;10.40;6.00;;;;;;;10.78;54.94;100379.41;129392;1280;127820;-65
2023/05/11 02:23:22;;;;;;;13.40;6.60;;;;;;;10.77;54.79;100380.75;129394;1259;115238;-68
2023/05/11 02:26:25;;;;;;;10.60;6.60;;;;;;;10.75;54.65;100383.66;129401;1265;114879;-65
2023/05/11 02:29:27;;;;;;;15.60;6.70;;;;;;;10.74;54.68;100383.00;129476;1261;114795;-66
2023/05/11 02:32:33;;;;;;;10.60;6.60;;;;;;;10.73;54.72;100387.02;129361;1273;114794;-67
2023/05/11 02:35:38;;;;;;;9.70;6.60;;;;;;;10.72;54.95;100386.16;129445;1281;129042;-61
2023/05/11 02:38:41;;;;;;;8.90;6.40;;;;;;;10.71;54.87;100382.30;129369;1266;115270;-67
2023/05/11 02:41:44;;;;;;;12.30;7.10;;;;;;;10.69;54.73;100382.55;129522;1263;114737;-66
2023/05/11 02:44:55;;;;;;;10.70;6.70;;;;;;;10.69;55.06;100380.42;129486;1261;114711;-66
2023/05/11 02:47:58;;;;;;;10.60;6.90;;;;;;;10.68;54.97;100376.90;129366;1266;115608;-67
2023/05/11 02:51:01;;;;;;;13.30;7.90;;;;;;;10.66;55.16;100381.06;129563;1258;114827;-66
2023/05/11 02:54:06;;;;;;;12.30;6.80;;;;;;;10.65;54.90;100384.70;129547;1260;114783;-68
2023/05/11 02:57:08;;;;;;;12.10;7.40;;;;;;;10.66;55.11;100382.36;129440;1261;114831;-68
2023/05/11 03:00:11;;;;;;;10.60;6.70;;;;;;;10.65;55.10;100379.71;129548;1260;114780;-65
2023/05/11 03:03:14;;;;;;;15.30;7.70;;;;;;;10.64;55.12;100379.73;129600;1279;114730;-64
2023/05/11 03:06:16;;;;;;;11.10;7.20;;;;;;;10.64;55.20;100379.77;129482;1279;114734;-67
2023/05/11 03:09:19;;;;;;;12.10;6.90;;;;;;;10.63;55.14;100380.16;129618;1280;115100;-67
2023/05/11 03:12:22;;;;;;;10.70;6.70;;;;;;;10.62;55.15;100380.94;129702;1260;114729;-66
2023/05/11 03:15:24;;;;;;;11.30;7.10;;;;;;;10.61;55.46;100380.44;129502;1261;114718;-63
2023/05/11 03:18:28;;;;;;;12.10;7.50;;;;;;;10.60;55.09;100380.10;129585;1257;114811;-68
2023/05/11 03:21:31;;;;;;;9.60;6.80;;;;;;;10.61;55.34;100380.23;129491;1280;115195;-66
2023/05/11 03:24:33;;;;;;;14.20;7.50;;;;;;;10.62;55.34;100379.86;129409;1274;115362;-70
2023/05/11 03:27:36;;;;;;;15.20;7.50;;;;;;;10.60;55.17;100381.52;129493;1281;115002;-69
2023/05/11 03:30:39;;;;;;;11.40;6.90;;;;;;;10.60;55.26;100386.70;129553;1264;114729;-65
2023/05/11 03:33:41;;;;;;;12.30;7.20;;;;;;;10.60;55.32;100385.27;129720;1262;114787;-68
2023/05/11 03:36:47;;;;;;;10.30;6.30;;;;;;;10.59;55.35;100386.77;129558;1264;114855;-65
2023/05/11 03:39:53;;;;;;;10.60;6.70;;;;;;;10.59;55.42;100396.27;129307;1281;114642;-71
2023/05/11 03:42:56;;;;;;;13.10;7.10;;;;;;;10.57;55.47;100392.05;129443;1281;127597;-70
2023/05/11 03:45:59;;;;;;;12.10;6.10;;;;;;;10.56;55.58;100393.35;129587;1281;114823;-69
2023/05/11 03:49:03;;;;;;;13.50;6.70;;;;;;;10.56;55.69;100392.65;129602;1263;114766;-69
2023/05/11 03:52:06;;;;;;;13.40;6.70;;;;;;;10.55;55.64;100394.98;129512;1280;114793;-67
2023/05/11 03:55:09;;;;;;;11.40;6.40;;;;;;;10.55;55.55;100396.09;129464;1279;114755;-64
2023/05/11 03:58:11;;;;;;;11.40;6.20;;;;;;;10.54;55.63;100395.61;129497;1280;114770;-66
2023/05/11 04:01:13;;;;;;;9.40;6.60;;;;;;;10.53;55.68;100396.20;129527;1260;115303;-69
2023/05/11 04:04:15;;;;;;;12.00;6.20;;;;;;;10.52;55.59;100397.51;129480;1265;115221;-67
2023/05/11 04:07:18;;;;;;;9.60;6.10;;;;;;;10.53;55.67;100396.35;129525;1280;114757;-66
2023/05/11 04:10:21;;;;;;;11.70;6.50;;;;;;;10.57;55.81;100394.74;129642;1260;114706;-68
2023/05/11 04:13:23;;;;;;;8.80;6.10;;;;;;;10.61;55.64;100395.99;129461;1261;115344;-69
2023/05/11 04:16:25;;;;;;;13.20;7.40;;;;;;;10.67;55.71;100395.17;129487;1280;114850;-69
2023/05/11 04:19:27;;;;;;;12.00;7.50;;;;;;;10.73;55.86;100393.42;129695;1262;115110;-70
2023/05/11 04:22:30;;;;;;;8.30;6.60;;;;;;;10.78;55.67;100394.83;129499;1263;128223;-69
2023/05/11 04:25:32;;;;;;;13.70;6.60;;;;;;;10.85;55.55;100397.48;129481;1268;114738;-70
2023/05/11 04:28:34;;;;;;;15.50;7.00;;;;;;;10.93;55.84;100394.23;129625;1257;127526;-69
2023/05/11 04:31:36;;;;;;;11.00;6.30;;;;;;;10.99;55.71;100395.04;129470;1258;114798;-68
2023/05/11 04:34:39;;;;;;;10.40;6.20;;;;;;;11.04;55.53;100397.27;129524;1262;116309;-68
2023/05/11 04:37:42;;;;;;;12.20;6.90;;;;;;;11.11;55.44;100397.13;129518;1257;114789;-69
2023/05/11 04:40:44;;;;;;;13.40;6.40;;;;;;;11.17;55.55;100399.31;129631;1262;114658;-70
2023/05/11 04:43:52;;;;;;;9.00;6.20;;;;;;;11.20;55.28;100402.02;129544;1257;128936;-70
2023/05/11 04:46:55;;;;;;;10.50;5.80;;;;;;;11.23;55.45;100402.40;129483;1261;114731;-67
2023/05/11 04:49:57;;;;;;;9.70;6.60;;;;;;;11.27;55.65;100401.85;129770;1258;114741;-68
2023/05/11 04:53:00;;;;;;;12.60;6.10;;;;;;;11.32;55.55;100401.23;129663;1280;114744;-70
2023/05/11 04:56:02;;;;;;;14.00;7.20;;;;;;;11.35;55.33;100408.77;129457;1277;114800;-63
2023/05/11 04:59:08;;;;;;;13.50;5.90;;;;;;;11.42;55.45;100410.73;129530;1280;115396;-70
2023/05/11 05:02:10;;;;;;;10.70;6.90;;;;;;;11.49;55.51;100407.52;129529;1275;128841;-67
2023/05/11 05:05:12;;;;;;;10.50;6.10;;;;;;;11.56;55.47;100412.73;129548;1261;114795;-71
2023/05/11 05:08:16;;;;;;;12.30;6.30;;;;;;;11.65;55.44;100415.11;129637;1256;114681;-69
2023/05/11 05:11:18;;;;;;;12.60;7.00;;;;;;;11.75;55.34;100409.94;129722;1259;115307;-69
2023/05/11 05:14:20;;;;;;;14.70;7.30;;;;;;;11.82;55.05;100412.27;129607;1260;114767;-70
2023/05/11 05:17:22;;;;;;;9.50;6.10;;;;;;;11.88;55.03;100417.14;129765;1259;114812;-71
2023/05/11 05:20:25;;;;;;;10.80;6.20;;;;;;;11.95;55.03;100414.09;129391;1280;114854;-65
2023/05/11 05:23:27;;;;;;;12.20;7.20;;;;;;;12.01;55.20;100420.05;129430;1257;114722;-70
2023/05/11 05:26:29;;;;;;;15.60;6.90;;;;;;;12.05;55.10;100421.09;129581;1262;114720;-69
2023/05/11 05:29:31;;;;;;;11.50;7.60;;;;;;;12.12;55.13;100419.48;129703;1281;115263;-71
2023/05/11 05:32:34;;;;;;;10.40;7.20;;;;;;;12.21;55.27;100423.27;129511;1273;114744;-63
2023/05/11 05:35:36;;;;;;;15.40;8.90;;;;;;;12.26;54.90;100418.34;129511;1262;114805;-69
2023/05/11 05:38:38;;;;;;;15.30;7.30;;;;;;;12.34;55.14;100416.49;129546;1262;114728;-67
2023/05/11 05:41:41;;;;;;;10.90;7.10;;;;;;;12.46;54.92;100419.04;129375;1265;114901;-69
2023/05/11 05:44:44;;;;;;;12.20;7.80;;;;;;;12.58;54.55;100423.93;129426;1281;128832;-69
2023/05/11 05:47:47;;;;;;;12.70;6.50;;;;;;;12.63;54.55;100423.84;129511;1281;114761;-69
2023/05/11 05:50:50;;;;;;;10.60;7.20;;;;;;;12.76;54.85;100430.65;129716;1262;114713;-70
2023/05/11 05:53:52;;;;;;;12.40;7.30;;;;;;;12.94;54.94;100427.69;129765;1260;114760;-70
2023/05/11 05:56:55;;;;;;;10.80;6.90;;;;;;;13.20;54.82;100432.61;129657;1280;114739;-70
2023/05/11 05:59:57;;;;;;;15.50;6.90;;;;;;;13.52;54.68;100428.60;129627;1280;114821;-67
2023/05/11 06:02:59;;;;;;;10.40;7.00;;;;;;;13.76;54.22;100427.72;129405;1280;128401;-67
2023/05/11 06:06:02;;;;;;;19.30;7.10;;;;;;;13.95;54.06;100429.80;129740;1260;114738;-69
2023/05/11 06:09:05;;;;;;;14.80;6.60;;;;;;;14.20;53.91;100429.72;129661;1256;114751;-70
2023/05/11 06:12:08;;;;;;;10.50;6.40;;;;;;;14.41;53.38;100422.63;129722;1276;114742;-70
2023/05/11 06:15:12;;;;;;;12.10;6.50;;;;;;;14.53;53.31;100419.31;129732;1261;114742;-71
2023/05/11 06:18:14;;;;;;;13.90;7.40;;;;;;;14.71;53.21;100422.14;129696;1271;114737;-71
2023/05/11 06:21:16;;;;;;;11.70;7.50;;;;;;;15.00;53.29;100429.07;129570;1280;114713;-68
2023/05/11 06:24:19;;;;;;;10.30;6.40;;;;;;;15.49;52.95;100427.98;129501;1281;114821;-69
2023/05/11 06:27:22;;;;;;;15.10;7.30;;;;;;;15.83;52.28;100428.56;129670;1262;114778;-71
2023/05/11 06:30:24;;;;;;;13.40;7.90;;;;;;;16.07;51.60;100426.73;129439;1259;115012;-72
2023/05/11 06:33:27;;;;;;;12.40;6.40;;;;;;;16.29;51.65;100427.20;129786;1281;114690;-73
2023/05/11 06:36:31;;;;;;;12.80;6.70;;;;;;;16.98;51.41;100426.85;129607;1281;114722;-69
2023/05/11 06:39:36;;;;;;;10.30;6.30;;;;;;;18.00;51.41;100423.88;129389;1258;114901;-72
2023/05/11 06:42:38;;;;;;;8.70;6.60;;;;;;;18.95;50.50;100417.13;129517;1264;115190;-72
2023/05/11 06:45:44;;;;;;;10.10;6.30;;;;;;;19.52;48.18;100421.85;129541;1262;114792;-72
2023/05/11 06:48:46;;;;;;;10.60;6.50;;;;;;;19.87;47.90;100419.02;129277;1257;114786;-72
2023/05/11 06:51:48;;;;;;;9.40;5.90;;;;;;;20.32;47.35;100419.09;129579;1262;114806;-71
2023/05/11 06:54:50;;;;;;;9.80;6.80;;;;;;;20.71;46.41;100419.14;129640;1260;114747;-71
2023/05/11 06:57:52;;;;;;;7.20;5.30;;;;;;;21.04;46.22;100420.88;129681;1262;115332;-72
2023/05/11 07:00:55;;;;;;;9.60;5.90;;;;;;;21.52;46.19;100413.91;129245;1257;115217;-72
2023/05/11 07:03:57;;;;;;;10.10;6.30;;;;;;;22.16;45.57;100411.69;129902;1256;114723;-72
2023/05/11 07:07:00;;;;;;;15.30;5.80;;;;;;;22.63;44.26;100412.77;129788;1261;114702;-72
2023/05/11 07:10:03;;;;;;;15.30;7.20;;;;;;;22.90;43.53;100412.98;129729;1256;114808;-71
2023/05/11 07:13:06;;;;;;;9.50;5.90;;;;;;;23.25;43.77;100409.75;129680;1256;114783;-70
2023/05/11 07:16:09;;;;;;;9.10;6.20;;;;;;;23.52;42.57;100411.51;129836;1261;114820;-70
2023/05/11 07:19:12;;;;;;;7.20;5.20;;;;;;;23.67;42.48;100409.86;129888;1271;114729;-70
2023/05/11 07:22:14;;;;;;;11.20;6.40;;;;;;;23.70;41.59;100410.08;129671;1262;114706;-72
2023/05/11 07:25:17;;;;;;;11.70;6.50;;;;;;;23.69;41.63;100406.72;129623;1258;114652;-70
2023/05/11 07:28:20;;;;;;;10.30;6.70;;;;;;;23.70;40.88;100410.05;129617;1257;114701;-68
2023/05/11 07:31:23;;;;;;;12.90;6.00;;;;;;;23.60;40.73;100412.60;129679;1281;114732;-72
2023/05/11 07:34:26;;;;;;;13.50;6.40;;;;;;;23.44;40.19;100411.41;129827;1262;114814;-70
2023/05/11 07:37:28;;;;;;;9.60;6.50;;;;;;;23.36;40.47;100412.42;129699;1258;115111;-69
2023/05/11 07:40:31;;;;;;;8.40;6.00;;;;;;;23.26;39.82;100415.03;129607;1259;115321;-70
2023/05/11 07:43:33;;;;;;;9.00;6.60;;;;;;;22.96;39.91;100420.04;129673;1259;114709;-67
2023/05/11 07:46:35;;;;;;;9.40;6.50;;;;;;;22.56;39.41;100423.16;129459;1258;114803;-71
2023/05/11 07:49:38;;;;;;;9.70;6.60;;;;;;;22.00;39.92;100421.93;129621;1278;114712;-66
2023/05/11 07:52:40;;;;;;;13.60;7.30;;;;;;;21.65;40.11;100424.90;129666;1262;114810;-67
2023/05/11 07:55:43;;;;;;;12.20;6.90;;;;;;;21.27;40.19;100425.32;129658;1262;114782;-67
2023/05/11 07:58:45;;;;;;;11.40;7.20;;;;;;;20.94;40.69;100426.26;129594;1262;116487;-68
2023/05/11 08:01:47;;;;;;;9.60;6.60;;;;;;;20.86;40.97;100426.16;129607;1278;114873;-69
2023/05/11 08:04:50;;;;;;;11.50;6.90;;;;;;;20.70;41.06;100428.46;129553;1258;114734;-71
2023/05/11 08:07:53;;;;;;;10.70;7.00;;;;;;;20.64;41.35;100426.48;129578;1257;114717;-71
2023/05/11 08:10:55;;;;;;;13.00;7.80;;;;;;;20.85;41.54;100429.12;129494;1276;114886;-71
2023/05/11 08:13:58;;;;;;;17.20;7.20;;;;;;;21.14;41.62;100430.86;129569;1281;115084;-70
2023/05/11 08:17:01;;;;;;;11.60;7.00;;;;;;;21.49;40.94;100432.48;129727;1274;114732;-69
2023/05/11 08:20:05;;;;;;;13.70;6.80;;;;;;;21.62;40.83;100434.80;129609;1262;115320;-69
2023/05/11 08:23:09;;;;;;;13.60;6.70;;;;;;;21.94;41.01;100428.64;129680;1260;115311;-64
2023/05/11 08:26:12;;;;;;;9.90;6.20;;;;;;;22.38;40.60;100427.21;129827;1256;114718;-71
2023/05/11 08:29:15;;;;;;;17.60;6.80;;;;;;;22.79;40.41;100420.33;129799;1267;114745;-67
2023/05/11 08:32:17;;;;;;;8.60;6.40;;;;;;;23.16;39.77;100423.20;129780;1259;115370;-72
2023/05/11 08:35:20;;;;;;;11.00;6.50;;;;;;;23.50;39.54;100420.27;129625;1260;114748;-68
2023/05/11 08:38:23;;;;;;;9.40;6.00;;;;;;;23.92;39.06;100420.92;129733;1279;114828;-72
2023/05/11 08:41:26;;;;;;;8.00;6.50;;;;;;;24.25;38.65;100419.73;129831;1262;114719;-70
2023/05/11 08:44:29;;;;;;;8.30;5.80;;;;;;;24.27;38.36;100417.90;129529;1269;114815;-72
2023/05/11 08:47:32;;;;;;;11.70;6.60;;;;;;;24.27;37.91;100420.40;129682;1261;127789;-69
2023/05/11 08:50:35;;;;;;;12.80;6.60;;;;;;;24.26;38.31;100420.70;129383;1280;115260;-71
2023/05/11 08:53:37;;;;;;;12.70;8.60;;;;;;;24.15;38.02;100419.64;129549;1281;115192;-66
2023/05/11 08:56:41;;;;;;;8.00;6.30;;;;;;;23.95;37.95;100417.00;129883;1262;114747;-71
2023/05/11 08:59:45;;;;;;;7.10;4.90;;;;;;;23.75;37.68;100416.98;129477;1274;115201;-69
2023/05/11 09:02:47;;;;;;;8.10;4.90;;;;;;;23.61;37.84;100415.38;129487;1281;115094;-70
2023/05/11 09:05:51;;;;;;;9.10;4.80;;;;;;;23.73;37.73;100417.96;129574;1257;114739;-69
2023/05/11 09:08:54;;;;;;;8.30;4.20;;;;;;;23.59;37.14;100415.02;129551;1262;114692;-71
2023/05/11 09:11:56;;;;;;;6.60;4.60;;;;;;;23.55;37.67;100414.95;129607;1262;115392;-70
2023/05/11 09:14:58;;;;;;;5.40;4.10;;;;;;;23.69;37.46;100415.34;129741;1281;114747;-70
2023/05/11 09:18:01;;;;;;;6.50;4.30;;;;;;;23.77;37.01;100410.50;129393;1281;114734;-71
2023/05/11 09:21:04;;;;;;;4.60;3.80;;;;;;;23.41;36.51;100410.29;129412;1261;127737;-70
2023/05/11 09:24:06;;;;;;;4.50;3.50;;;;;;;23.16;37.14;100411.36;129656;1262;115250;-69
2023/05/11 09:27:08;;;;;;;5.20;3.50;;;;;;;23.12;36.98;100408.83;129641;1261;114825;-70
2023/05/11 09:30:21;;;;;;;4.90;3.50;;;;;;;23.14;37.20;100409.88;129675;1262;114745;-62
2023/05/11 09:33:24;;;;;;;3.70;2.60;;;;;;;23.26;37.22;100405.24;129398;1256;115533;-64
2023/05/11 09:36:28;;;;;;;4.20;3.60;;;;;;;23.37;36.94;100405.78;129577;1262;115240;-71
2023/05/11 09:39:35;;;;;;;4.80;3.50;;;;;;;23.41;36.82;100403.39;129423;1265;127586;-63
2023/05/11 09:42:38;;;;;;;5.30;3.70;;;;;;;23.49;36.76;100401.30;129355;1263;115213;-70
2023/05/11 09:45:45;;;;;;;5.90;4.20;;;;;;;23.57;36.96;100402.14;129643;1256;114791;-71
2023/05/11 09:48:58;;;;;;;5.50;3.60;;;;;;;23.71;37.10;100401.56;129581;1260;114948;-71
2023/05/11 09:52:00;;;;;;;8.50;3.10;;;;;;;23.74;36.20;100400.87;129340;1281;114794;-71
2023/05/11 09:55:09;;;;;;;3.40;2.60;;;;;;;23.83;36.41;100402.35;129535;1262;114814;-70
2023/05/11 09:58:11;;;;;;;5.30;3.00;;;;;;;24.16;36.46;100400.77;129555;1260;115257;-71
2023/05/11 10:01:16;;;;;;;6.90;3.20;;;;;;;24.35;35.75;100398.35;129573;1262;115585;-71
2023/05/11 10:04:28;;;;;;;6.30;3.10;;;;;;;24.33;35.70;100391.13;129592;1262;114809;-68
2023/05/11 10:07:34;;;;;;;6.60;3.70;;;;;;;24.35;35.05;100393.36;129332;1265;114863;-71
2023/05/11 10:10:37;;;;;;;4.20;3.20;;;;;;;24.34;34.99;100386.10;129286;1259;127697;-63
2023/05/11 10:13:42;;;;;;;3.50;2.50;;;;;;;24.32;34.76;100386.19;129574;1259;115243;-68
2023/05/11 10:16:45;;;;;;;8.20;3.10;;;;;;;24.30;34.52;100382.52;129575;1265;114787;-71
2023/05/11 10:19:48;;;;;;;4.20;2.70;;;;;;;24.27;34.72;100377.71;129434;1264;115172;-69
2023/05/11 10:22:54;;;;;;;3.90;2.60;;;;;;;24.34;34.68;100378.27;129621;1281;114718;-68
2023/05/11 10:25:57;;;;;;;7.00;2.60;;;;;;;24.30;34.13;100374.82;129381;1265;128454;-71
2023/05/11 10:29:00;;;;;;;3.80;2.70;;;;;;;24.30;33.77;100377.42;129552;1260;114790;-68
2023/05/11 10:32:04;;;;;;;2.50;2.30;;;;;;;24.19;32.80;100375.23;129738;1262;114840;-71
2023/05/11 10:35:07;;;;;;;3.30;2.60;;;;;;;24.15;33.14;100371.13;129740;1259;114722;-70
2023/05/11 10:38:10;;;;;;;3.10;2.70;;;;;;;24.13;32.65;100371.16;129600;1278;114797;-72
2023/05/11 10:41:36;;;;;;;3.80;2.50;;;;;;;24.07;32.79;100367.73;129656;1281;114723;-71
2023/05/11 10:44:39;;;;;;;2.80;2.10;;;;;;;23.99;32.29;100364.80;129292;1266;116141;-71
2023/05/11 10:48:02;;;;;;;4.60;2.50;;;;;;;23.98;32.58;100363.73;129543;1266;114906;-71
2023/05/11 10:51:21;;;;;;;3.90;1.80;;;;;;;24.08;32.03;100358.90;129337;1259;114726;-70
2023/05/11 10:54:23;;;;;;;2.80;2.20;;;;;;;24.13;31.98;100354.02;129430;1278;114714;-72
2023/05/11 10:57:36;;;;;;;4.20;2.30;;;;;;;24.17;31.35;100355.29;129510;1281;114858;-71
2023/05/11 11:01:17;;;;;;;4.60;2.50;;;;;;;24.15;30.92;100354.73;129260;1281;115778;-71
2023/05/11 11:04:19;;;;;;;4.80;2.00;;;;;;;24.09;30.84;100353.13;129481;1262;114788;-72
2023/05/11 11:07:22;;;;;;;4.40;2.40;;;;;;;24.08;31.25;100349.05;129607;1264;114717;-70
2023/05/11 11:10:50;;;;;;;2.90;2.30;;;;;;;24.18;32.18;100347.59;129558;1281;114718;-69
2023/05/11 11:13:57;;;;;;;3.80;2.10;;;;;;;24.31;31.57;100350.80;129368;1257;128365;-70
2023/05/11 11:17:17;;;;;;;4.80;2.50;;;;;;;24.35;30.97;100352.80;129396;1265;115233;-72
2023/05/11 11:20:46;;;;;;;5.00;2.60;;;;;;;24.46;31.36;100349.25;129577;1262;115008;-71
2023/05/11 11:23:49;;;;;;;3.20;2.80;;;;;;;24.59;31.43;100347.13;129761;1262;114795;-73
2023/05/11 11:26:51;;;;;;;3.80;2.60;;;;;;;24.59;30.96;100351.09;129632;1261;114779;-71
2023/05/11 11:30:19;;;;;;;4.00;2.40;;;;;;;24.51;31.35;100351.41;129590;1262;114815;-70
2023/05/11 11:33:21;;;;;;;4.30;2.60;;;;;;;24.53;31.30;100355.95;129556;1258;116496;-70
2023/05/11 11:37:02;;;;;;;3.60;2.40;;;;;;;24.53;31.36;100350.70;129717;1276;114818;-71
2023/05/11 11:40:06;;;;;;;6.70;2.70;;;;;;;24.57;31.43;100347.13;129122;1287;114947;-70
2023/05/11 11:43:19;;;;;;;4.30;2.10;;;;;;;24.45;30.63;100354.27;128969;1287;115342;-72
2023/05/11 11:46:28;;;;;;;4.40;2.70;;;;;;;24.23;30.75;100351.55;129039;1287;128811;-73
2023/05/11 11:49:31;;;;;;;3.20;2.40;;;;;;;24.09;30.51;100354.26;129089;1266;115261;-69
2023/05/11 11:52:33;;;;;;;2.40;2.20;;;;;;;23.87;30.57;100348.30;129057;1268;114810;-70
2023/05/11 11:55:45;;;;;;;3.80;2.10;;;;;;;23.78;30.62;100346.30;129022;1268;114827;-69
2023/05/11 11:58:48;;;;;;;2.60;2.00;;;;;;;23.69;30.68;100342.73;129075;1268;114825;-67
2023/05/11 12:01:51;;;;;;;3.10;2.30;;;;;;;23.66;30.57;100346.67;129183;1268;114771;-67
2023/05/11 12:04:57;;;;;;;5.20;3.80;;;;;;;23.63;30.34;100344.96;129074;1281;114875;-70
2023/05/11 12:08:05;;;;;;;4.70;3.20;;;;;;;23.48;30.48;100349.06;128710;1288;114900;-64
2023/05/11 12:11:07;;;;;;;6.20;3.40;;;;;;;23.34;31.57;100353.27;128980;1271;114845;-70
2023/05/11 12:14:11;;;;;;;5.30;3.40;;;;;;;23.14;32.15;100346.82;128994;1287;114914;-68
2023/05/11 12:17:15;;;;;;;7.40;3.50;;;;;;;22.95;32.53;100349.91;129230;1264;114730;-71
2023/05/11 12:20:19;;;;;;;5.10;3.60;;;;;;;22.77;32.73;100351.70;129489;1280;114747;-72
2023/05/11 12:23:21;;;;;;;5.40;3.70;;;;;;;22.63;32.95;100352.50;129653;1261;115233;-71
2023/05/11 12:26:25;;;;;;;4.80;3.30;;;;;;;22.48;32.91;100349.86;129558;1280;114775;-71
2023/05/11 12:29:27;;;;;;;6.70;5.60;;;;;;;22.25;33.02;100346.02;129862;1280;114729;-71
2023/05/11 12:32:30;;;;;;;8.60;4.30;;;;;;;22.15;33.58;100341.35;129544;1277;114741;-71
2023/05/11 12:35:33;;;;;;;5.30;2.90;;;;;;;22.14;33.66;100342.16;129875;1280;114778;-71
2023/05/11 12:38:45;;;;;;;6.70;2.90;;;;;;;22.04;33.03;100342.41;129665;1277;114750;-72
2023/05/11 12:41:49;;;;;;;6.00;2.80;;;;;;;21.91;33.57;100340.23;129658;1262;115266;-71
2023/05/11 12:44:53;;;;;;;6.70;3.00;;;;;;;21.87;33.72;100331.33;129514;1279;114837;-72
2023/05/11 12:47:57;;;;;;;4.20;2.90;;;;;;;21.87;33.84;100327.55;129396;1280;127427;-72
2023/05/11 12:50:59;;;;;;;4.60;3.20;;;;;;;21.82;33.79;100328.93;129590;1271;114739;-71
2023/05/11 12:54:01;;;;;;;4.10;3.10;;;;;;;21.76;33.94;100323.47;129579;1262;115917;-71
2023/05/11 12:57:06;;;;;;;5.30;3.30;;;;;;;21.73;34.12;100324.31;129574;1262;114786;-72
2023/05/11 13:00:12;;;;;;;;;;;;;;;21.73;34.18;100322.17;129586;1281;114641;-72
2023/05/11 13:03:23;;;;;;;4.00;3.10;;;;;;;21.70;34.18;100322.79;129333;1259;127993;-71
2023/05/11 13:06:25;;;;;;;4.80;3.10;;;;;;;21.63;34.21;100322.77;129536;1281;116835;-71
2023/05/11 13:09:28;;;;;;;4.00;3.10;;;;;;;21.54;34.10;100316.67;129620;1277;114822;-71
2023/05/11 13:12:32;;;;;;;5.50;2.60;;;;;;;21.48;34.25;100312.14;129355;1259;297029;-68
2023/05/11 13:15:48;;;;;;;;;;;;;;;21.44;34.33;100309.61;129360;1281;114973;-73
2023/05/11 13:18:58;;;;;;;;;;;;;;;21.39;34.18;100309.71;129270;1263;128347;-71
2023/05/11 13:22:00;;;;;;;9.90;7.50;;;;;;;21.33;34.10;100304.07;129724;1280;115146;-70
2023/05/11 13:25:03;;;;;;;3.50;3.20;;;;;;;21.30;34.09;100303.82;129536;1262;114797;-71
2023/05/11 13:28:05;;;;;;;6.60;3.20;;;;;;;21.26;34.28;100302.08;129645;1262;114763;-71
2023/05/11 13:31:07;;;;;;;4.80;3.20;;;;;;;21.23;34.55;100294.00;129858;1280;114713;-71
2023/05/11 13:34:10;;;;;;;3.50;2.70;;;;;;;21.28;34.71;100298.09;129843;1262;114807;-72
2023/05/11 13:37:12;;;;;;;3.60;3.10;;;;;;;21.32;34.32;100294.92;129814;1262;114815;-72
2023/05/11 13:40:14;;;;;;;4.10;3.10;;;;;;;21.40;34.36;100291.64;129604;1280;114834;-74
2023/05/11 13:43:17;;;;;;;5.20;2.40;;;;;;;21.51;34.11;100287.00;129604;1262;114891;-71
2023/05/11 13:46:19;;;;;;;5.60;2.80;;;;;;;21.63;34.05;100281.09;129296;1281;114725;-71
2023/05/11 13:49:21;;;;;;;5.70;2.80;;;;;;;21.72;33.90;100285.37;129682;1262;114795;-70
2023/05/11 13:52:24;;;;;;;5.70;3.00;;;;;;;21.79;33.97;100281.04;129752;1262;114787;-71
2023/05/11 13:55:27;;;;;;;3.80;2.70;;;;;;;21.86;33.74;100281.27;129971;1275;114813;-72